Time;durP1;ratioP1;P1;durP2;ratioP2;P2;SDS_P1;SDS_P2;PMS_P1;PMS_P2;Temp;Humidity;BMP_temperature;BMP_pressure;BME280_temperature;BME280_humidity;BME280_pressure;Samples;Min_cycle;Max_cycle;Signal;HPM_P1;HPM_P2
2021/12/30 00:02:02;;;;;;;164.93;61.10;;;;;;;;;;5034356;28;20476;-64
2021/12/30 00:04:27;;;;;;;155.55;57.80;;;;;;;;;;5035451;28;20093;-64
2021/12/30 00:06:53;;;;;;;94.07;42.63;;;;;;;;;;5035477;28;20131;-64
2021/12/30 00:09:20;;;;;;;90.85;40.35;;;;;;;;;;5035421;28;20032;-64
2021/12/30 00:11:45;;;;;;;80.55;37.03;;;;;;;;;;5035313;28;20507;-64
2021/12/30 00:14:11;;;;;;;74.53;35.00;;;;;;;;;;5035207;28;20025;-64
2021/12/30 00:16:37;;;;;;;79.88;36.03;;;;;;;;;;5035357;28;20026;-64
2021/12/30 00:19:02;;;;;;;65.13;31.75;;;;;;;;;;5033989;28;20028;-64
2021/12/30 00:21:28;;;;;;;55.08;28.05;;;;;;;;;;5035183;28;20033;-64
2021/12/30 00:23:53;;;;;;;55.67;27.30;;;;;;;;;;5035149;28;20486;-64
2021/12/30 00:26:19;;;;;;;75.63;32.05;;;;;;;;;;5035268;28;20503;-64
2021/12/30 00:28:44;;;;;;;74.10;31.42;;;;;;;;;;5035045;28;20014;-64
2021/12/30 00:31:10;;;;;;;108.60;39.45;;;;;;;;;;5033786;28;20034;-64
2021/12/30 00:33:35;;;;;;;115.05;47.05;;;;;;;;;;5035077;28;20491;-64
2021/12/30 00:36:06;;;;;;;87.70;39.80;;;;;;;;;;5034796;28;20480;-64
2021/12/30 00:38:31;;;;;;;88.43;40.33;;;;;;;;;;5034823;28;20454;-64
2021/12/30 00:40:57;;;;;;;93.38;42.20;;;;;;;;;;5034644;28;20025;-64
2021/12/30 00:43:22;;;;;;;88.93;41.00;;;;;;;;;;5034608;28;20029;-64
2021/12/30 00:45:48;;;;;;;88.50;39.05;;;;;;;;;;5034135;28;20100;-63
2021/12/30 00:48:13;;;;;;;108.55;43.47;;;;;;;;;;5034664;28;20479;-63
2021/12/30 00:50:40;;;;;;;98.55;40.15;;;;;;;;;;5034448;28;20071;-63
2021/12/30 00:53:05;;;;;;;90.78;37.58;;;;;;;;;;5033322;28;20133;-64
2021/12/30 00:55:31;;;;;;;86.10;35.20;;;;;;;;;;5033220;28;20503;-63
2021/12/30 00:57:56;;;;;;;78.38;33.42;;;;;;;;;;5034314;28;20037;-63
2021/12/30 01:00:22;;;;;;;70.05;33.25;;;;;;;;;;5033545;28;20050;-64
2021/12/30 01:02:48;;;;;;;73.18;33.35;;;;;;;;;;5034290;28;20057;-63
2021/12/30 01:05:14;;;;;;;68.28;31.52;;;;;;;;;;5033018;28;20029;-63
2021/12/30 01:07:39;;;;;;;69.63;32.15;;;;;;;;;;5034284;28;20035;-63
2021/12/30 01:10:06;;;;;;;70.43;31.42;;;;;;;;;;5034276;28;20040;-63
2021/12/30 01:12:31;;;;;;;64.63;29.85;;;;;;;;;;5034139;28;20025;-63
2021/12/30 01:14:57;;;;;;;59.17;28.58;;;;;;;;;;5034191;28;20021;-63
2021/12/30 01:17:28;;;;;;;59.15;30.58;;;;;;;;;;5033989;28;20091;-64
2021/12/30 01:19:54;;;;;;;61.05;29.60;;;;;;;;;;5033863;28;20041;-63
2021/12/30 01:22:26;;;;;;;60.08;30.58;;;;;;;;;;5034026;28;20128;-64
2021/12/30 01:24:53;;;;;;;57.05;28.92;;;;;;;;;;5033910;28;20108;-64
2021/12/30 01:27:19;;;;;;;56.55;28.70;;;;;;;;;;5034023;28;20010;-64
2021/12/30 01:29:44;;;;;;;50.38;28.33;;;;;;;;;;5032812;28;20124;-64
2021/12/30 01:32:10;;;;;;;50.00;27.33;;;;;;;;;;5033755;28;20113;-64
2021/12/30 01:34:36;;;;;;;48.13;27.67;;;;;;;;;;5033729;28;20392;-64
2021/12/30 01:37:03;;;;;;;45.58;26.38;;;;;;;;;;5033755;28;20021;-64
2021/12/30 01:39:29;;;;;;;51.65;31.27;;;;;;;;;;5033522;28;20033;-64
2021/12/30 01:41:54;;;;;;;47.17;27.27;;;;;;;;;;5032349;28;20367;-64
2021/12/30 01:44:20;;;;;;;39.63;24.00;;;;;;;;;;5033586;28;20033;-63
2021/12/30 01:46:46;;;;;;;35.65;21.90;;;;;;;;;;5033618;28;20021;-63
2021/12/30 01:49:12;;;;;;;40.25;22.67;;;;;;;;;;5033716;28;20104;-63
2021/12/30 01:51:38;;;;;;;41.80;23.58;;;;;;;;;;5032244;28;20380;-63
2021/12/30 01:54:04;;;;;;;41.47;23.70;;;;;;;;;;5033308;28;20044;-63
2021/12/30 01:56:29;;;;;;;44.00;24.23;;;;;;;;;;5033484;28;20040;-63
2021/12/30 01:58:55;;;;;;;56.20;28.05;;;;;;;;;;5033438;28;20075;-64
2021/12/30 02:01:21;;;;;;;60.70;29.73;;;;;;;;;;5044955;28;20462;-64
2021/12/30 02:03:46;;;;;;;66.03;31.90;;;;;;;;;;5032597;28;20077;-63
2021/12/30 02:06:12;;;;;;;62.58;31.33;;;;;;;;;;5032227;28;20021;-63
2021/12/30 02:08:38;;;;;;;58.85;28.77;;;;;;;;;;5033361;28;20472;-64
2021/12/30 02:11:03;;;;;;;54.03;27.27;;;;;;;;;;5033173;28;20037;-64
2021/12/30 02:13:28;;;;;;;45.10;25.33;;;;;;;;;;5033156;28;20034;-64
2021/12/30 02:16:00;;;;;;;39.88;22.63;;;;;;;;;;5033126;28;20036;-64
2021/12/30 02:18:26;;;;;;;37.67;22.83;;;;;;;;;;5033207;28;20072;-64
2021/12/30 02:20:52;;;;;;;37.67;21.80;;;;;;;;;;5033108;28;20099;-64
2021/12/30 02:23:20;;;;;;;33.72;21.27;;;;;;;;;;5033061;28;20025;-63
2021/12/30 02:25:46;;;;;;;39.25;25.42;;;;;;;;;;5033099;28;20108;-63
2021/12/30 02:28:13;;;;;;;42.50;23.45;;;;;;;;;;5033025;28;20116;-63
2021/12/30 02:30:39;;;;;;;40.05;24.13;;;;;;;;;;5033046;28;20028;-63
2021/12/30 02:33:04;;;;;;;41.58;24.48;;;;;;;;;;5033164;28;20112;-64
2021/12/30 02:35:31;;;;;;;38.85;23.80;;;;;;;;;;5032943;28;20121;-64
2021/12/30 02:37:57;;;;;;;39.10;22.63;;;;;;;;;;5033002;28;20037;-64
2021/12/30 02:40:33;;;;;;;37.20;21.55;;;;;;;;;;5031602;28;20033;-64
2021/12/30 02:42:59;;;;;;;38.15;21.77;;;;;;;;;;5032903;28;20021;-64
2021/12/30 02:45:25;;;;;;;35.92;21.20;;;;;;;;;;5032865;28;20024;-63
2021/12/30 02:47:50;;;;;;;36.30;20.95;;;;;;;;;;5032801;28;20033;-63
2021/12/30 02:50:16;;;;;;;43.55;24.52;;;;;;;;;;5032885;28;20021;-63
2021/12/30 02:52:41;;;;;;;46.33;27.75;;;;;;;;;;5032852;28;20025;-63
2021/12/30 02:55:07;;;;;;;41.00;25.40;;;;;;;;;;5032905;28;20026;-63
2021/12/30 02:57:32;;;;;;;38.28;24.65;;;;;;;;;;5032695;28;20124;-64
2021/12/30 02:59:57;;;;;;;39.47;24.55;;;;;;;;;;5032679;28;20147;-64
2021/12/30 03:02:23;;;;;;;43.25;25.30;;;;;;;;;;5032509;28;20408;-64
2021/12/30 03:04:49;;;;;;;42.05;24.67;;;;;;;;;;5032950;28;20127;-63
2021/12/30 03:07:18;;;;;;;39.28;23.17;;;;;;;;;;5032792;28;20486;-64
2021/12/30 03:09:44;;;;;;;41.25;24.52;;;;;;;;;;5032787;28;20054;-64
2021/12/30 03:12:10;;;;;;;45.85;26.17;;;;;;;;;;5032685;28;20201;-64
2021/12/30 03:14:39;;;;;;;50.38;29.42;;;;;;;;;;5035439;28;20029;-64
2021/12/30 03:17:05;;;;;;;44.10;25.98;;;;;;;;;;5036295;28;20037;-64
2021/12/30 03:19:30;;;;;;;39.67;25.85;;;;;;;;;;5036209;28;20025;-64
2021/12/30 03:21:56;;;;;;;40.38;25.52;;;;;;;;;;5036326;28;20025;-64
2021/12/30 03:24:22;;;;;;;44.50;25.33;;;;;;;;;;5036336;28;20018;-64
2021/12/30 03:26:47;;;;;;;38.78;24.17;;;;;;;;;;5036212;28;20032;-64
2021/12/30 03:29:12;;;;;;;44.42;24.75;;;;;;;;;;5036209;28;20025;-64
2021/12/30 03:31:38;;;;;;;37.60;22.73;;;;;;;;;;5035929;28;20025;-64
2021/12/30 03:34:03;;;;;;;54.20;28.33;;;;;;;;;;5036139;28;20495;-64
2021/12/30 03:36:29;;;;;;;105.85;52.95;;;;;;;;;;5036072;28;20025;-64
2021/12/30 03:38:56;;;;;;;96.20;46.28;;;;;;;;;;5036014;28;20524;-64
2021/12/30 03:41:24;;;;;;;71.45;36.28;;;;;;;;;;5035891;28;20071;-64
2021/12/30 03:43:50;;;;;;;70.63;36.63;;;;;;;;;;5035831;28;20017;-64
2021/12/30 03:46:15;;;;;;;64.72;32.47;;;;;;;;;;5035818;28;20116;-64
2021/12/30 03:48:43;;;;;;;45.92;25.73;;;;;;;;;;5018079;28;20112;-64
2021/12/30 03:51:12;;;;;;;36.78;19.95;;;;;;;;;;5035807;28;20033;-64
2021/12/30 03:53:39;;;;;;;39.25;21.05;;;;;;;;;;5035769;28;20508;-64
2021/12/30 03:56:06;;;;;;;36.50;20.00;;;;;;;;;;5035622;28;20034;-64
2021/12/30 03:58:31;;;;;;;32.97;19.58;;;;;;;;;;5035533;28;20033;-64
2021/12/30 04:00:56;;;;;;;38.63;22.08;;;;;;;;;;5035566;28;20037;-64
2021/12/30 04:03:22;;;;;;;38.08;24.95;;;;;;;;;;5035422;28;20180;-64
2021/12/30 04:05:48;;;;;;;42.63;28.42;;;;;;;;;;5034249;28;20026;-64
2021/12/30 04:08:13;;;;;;;35.03;21.20;;;;;;;;;;5035346;28;20504;-64
2021/12/30 04:10:38;;;;;;;42.35;25.60;;;;;;;;;;5035382;28;20092;-64
2021/12/30 04:13:04;;;;;;;41.00;25.08;;;;;;;;;;5035285;28;20037;-64
2021/12/30 04:15:29;;;;;;;41.20;22.60;;;;;;;;;;5035278;28;20047;-64
2021/12/30 04:17:55;;;;;;;43.80;23.83;;;;;;;;;;5034126;28;20023;-64
2021/12/30 04:20:20;;;;;;;39.80;22.17;;;;;;;;;;5035183;28;20434;-64
2021/12/30 04:22:45;;;;;;;36.17;23.85;;;;;;;;;;5033951;28;20052;-64
2021/12/30 04:25:12;;;;;;;40.83;23.42;;;;;;;;;;5034325;28;20529;-64
2021/12/30 04:27:38;;;;;;;43.92;26.25;;;;;;;;;;5035146;28;20022;-64
2021/12/30 04:30:04;;;;;;;45.42;28.40;;;;;;;;;;5035108;28;20082;-64
2021/12/30 04:32:29;;;;;;;47.13;29.38;;;;;;;;;;5034980;28;20017;-64
2021/12/30 04:34:55;;;;;;;47.30;28.60;;;;;;;;;;5034900;28;20036;-64
2021/12/30 04:37:20;;;;;;;40.97;25.00;;;;;;;;;;5034804;28;20021;-64
2021/12/30 04:39:46;;;;;;;40.67;26.80;;;;;;;;;;5034606;28;20391;-64
2021/12/30 04:42:11;;;;;;;47.55;28.42;;;;;;;;;;5034667;28;20460;-64
2021/12/30 04:44:37;;;;;;;47.03;28.58;;;;;;;;;;5034722;28;20032;-64
2021/12/30 04:47:02;;;;;;;47.42;28.70;;;;;;;;;;5034753;28;20028;-64
2021/12/30 04:49:28;;;;;;;44.72;26.33;;;;;;;;;;5034788;28;20037;-64
2021/12/30 04:51:53;;;;;;;49.50;27.67;;;;;;;;;;5034559;28;20025;-64
2021/12/30 04:54:19;;;;;;;51.67;28.58;;;;;;;;;;5034532;28;20032;-64
2021/12/30 04:56:44;;;;;;;48.13;27.65;;;;;;;;;;5034529;28;20534;-65
2021/12/30 04:59:10;;;;;;;48.35;27.15;;;;;;;;;;5034384;28;20044;-65
2021/12/30 05:01:35;;;;;;;48.30;27.33;;;;;;;;;;5033036;28;20009;-65
2021/12/30 05:04:01;;;;;;;44.42;26.73;;;;;;;;;;5034372;28;20461;-64
2021/12/30 05:06:26;;;;;;;44.63;25.95;;;;;;;;;;5034339;28;20017;-65
2021/12/30 05:08:52;;;;;;;49.15;27.05;;;;;;;;;;5034273;28;20029;-64
2021/12/30 05:11:17;;;;;;;46.67;27.10;;;;;;;;;;5034109;28;20487;-64
2021/12/30 05:13:43;;;;;;;42.03;26.70;;;;;;;;;;5034048;28;20033;-64
2021/12/30 05:16:08;;;;;;;46.75;27.45;;;;;;;;;;5034258;28;20373;-64
2021/12/30 05:18:34;;;;;;;49.70;27.95;;;;;;;;;;5033118;28;20041;-65
2021/12/30 05:21:01;;;;;;;44.55;26.90;;;;;;;;;;5033929;28;20033;-65
2021/12/30 05:23:27;;;;;;;50.13;29.00;;;;;;;;;;5033926;28;20116;-64
2021/12/30 05:25:52;;;;;;;48.35;26.63;;;;;;;;;;5033877;28;20029;-64
2021/12/30 05:28:18;;;;;;;56.65;32.33;;;;;;;;;;5034029;28;20033;-64
2021/12/30 05:30:43;;;;;;;64.85;33.83;;;;;;;;;;5033900;28;20108;-65
2021/12/30 05:33:09;;;;;;;64.97;34.13;;;;;;;;;;5033764;28;20116;-64
2021/12/30 05:35:34;;;;;;;118.68;48.40;;;;;;;;;;5033759;28;20109;-65
2021/12/30 05:38:01;;;;;;;189.95;71.32;;;;;;;;;;5032940;28;20091;-64
2021/12/30 05:40:27;;;;;;;222.85;93.88;;;;;;;;;;5033804;28;20556;-64
2021/12/30 05:42:53;;;;;;;130.10;65.32;;;;;;;;;;5033529;28;20053;-64
2021/12/30 05:45:20;;;;;;;140.73;69.72;;;;;;;;;;5032282;28;20044;-64
2021/12/30 05:47:46;;;;;;;95.22;52.58;;;;;;;;;;5033641;28;20112;-64
2021/12/30 05:50:13;;;;;;;97.47;51.42;;;;;;;;;;5033653;28;20024;-65
2021/12/30 05:52:38;;;;;;;101.15;51.65;;;;;;;;;;5033609;28;20472;-64
2021/12/30 05:55:04;;;;;;;91.43;47.53;;;;;;;;;;5033519;28;20026;-65
2021/12/30 05:57:30;;;;;;;80.57;42.72;;;;;;;;;;5033407;28;20072;-65
2021/12/30 05:59:56;;;;;;;81.07;41.10;;;;;;;;;;5033290;28;20048;-64
2021/12/30 06:02:21;;;;;;;79.97;41.88;;;;;;;;;;5032737;28;20518;-64
2021/12/30 06:04:47;;;;;;;77.93;41.13;;;;;;;;;;5033371;28;20489;-63
2021/12/30 06:07:12;;;;;;;61.10;35.10;;;;;;;;;;5033368;28;20062;-63
2021/12/30 06:09:37;;;;;;;51.70;31.17;;;;;;;;;;5033262;28;20029;-63
2021/12/30 06:12:03;;;;;;;60.92;31.73;;;;;;;;;;5033206;28;20053;-63
2021/12/30 06:14:28;;;;;;;60.70;33.80;;;;;;;;;;5033366;28;20025;-63
2021/12/30 06:16:54;;;;;;;57.40;30.15;;;;;;;;;;5031932;28;20112;-63
2021/12/30 06:19:19;;;;;;;54.22;30.63;;;;;;;;;;5033030;28;20120;-63
2021/12/30 06:21:45;;;;;;;46.10;27.00;;;;;;;;;;5033105;28;20052;-64
2021/12/30 06:24:11;;;;;;;44.95;26.10;;;;;;;;;;5033073;28;20017;-64
2021/12/30 06:26:36;;;;;;;47.00;26.40;;;;;;;;;;5033091;28;20033;-64
2021/12/30 06:29:02;;;;;;;44.15;25.80;;;;;;;;;;5033031;28;20025;-64
2021/12/30 06:31:28;;;;;;;46.88;26.00;;;;;;;;;;5033002;28;20032;-64
2021/12/30 06:33:53;;;;;;;44.80;25.45;;;;;;;;;;5032904;28;20018;-64
2021/12/30 06:36:21;;;;;;;44.97;25.25;;;;;;;;;;5031651;28;20053;-64
2021/12/30 06:38:47;;;;;;;45.28;26.05;;;;;;;;;;5032980;28;20022;-64
2021/12/30 06:41:12;;;;;;;46.60;26.23;;;;;;;;;;5032867;28;20038;-64
2021/12/30 06:43:37;;;;;;;47.08;26.52;;;;;;;;;;5032745;28;20075;-64
2021/12/30 06:46:05;;;;;;;50.70;26.38;;;;;;;;;;5032923;28;20018;-64
2021/12/30 06:48:30;;;;;;;44.88;25.52;;;;;;;;;;5034101;28;20024;-64
2021/12/30 06:50:57;;;;;;;43.40;26.75;;;;;;;;;;5036855;28;20025;-64
2021/12/30 06:53:23;;;;;;;54.10;31.50;;;;;;;;;;5036779;28;20013;-64
2021/12/30 06:55:50;;;;;;;116.78;31.38;;;;;;;;;;5036722;28;20038;-64
2021/12/30 06:58:16;;;;;;;45.55;25.65;;;;;;;;;;5036660;28;20028;-65
2021/12/30 07:00:41;;;;;;;46.15;27.13;;;;;;;;;;5036598;28;20087;-64
2021/12/30 07:03:07;;;;;;;45.15;26.30;;;;;;;;;;5035067;28;20042;-65
2021/12/30 07:05:32;;;;;;;42.20;24.98;;;;;;;;;;5036635;28;20029;-65
2021/12/30 07:07:58;;;;;;;40.58;24.38;;;;;;;;;;5036299;28;20368;-64
2021/12/30 07:10:23;;;;;;;47.17;26.33;;;;;;;;;;5036563;28;20064;-65
2021/12/30 07:12:49;;;;;;;44.83;26.42;;;;;;;;;;5036570;28;20384;-65
2021/12/30 07:15:14;;;;;;;47.92;28.10;;;;;;;;;;5036487;28;20487;-65
2021/12/30 07:17:40;;;;;;;51.42;30.75;;;;;;;;;;5036400;28;20030;-65
2021/12/30 07:20:07;;;;;;;65.15;38.00;;;;;;;;;;5036243;28;20087;-66
2021/12/30 07:22:32;;;;;;;54.78;34.08;;;;;;;;;;5036356;28;20021;-65
2021/12/30 07:24:58;;;;;;;61.50;37.72;;;;;;;;;;5036317;28;20025;-65
2021/12/30 07:27:23;;;;;;;59.72;35.67;;;;;;;;;;5036162;28;20013;-65
2021/12/30 07:29:48;;;;;;;55.83;31.00;;;;;;;;;;5036129;28;20037;-65
2021/12/30 07:32:14;;;;;;;53.78;30.67;;;;;;;;;;5036241;28;20020;-65
2021/12/30 07:34:39;;;;;;;52.30;28.90;;;;;;;;;;5036067;28;20034;-65
2021/12/30 07:37:05;;;;;;;48.30;27.48;;;;;;;;;;5035948;28;20028;-65
2021/12/30 07:39:30;;;;;;;61.08;32.35;;;;;;;;;;5035862;28;20076;-65
2021/12/30 07:41:55;;;;;;;70.20;37.03;;;;;;;;;;5035894;28;20018;-65
2021/12/30 07:44:23;;;;;;;67.15;33.55;;;;;;;;;;5031849;28;20025;-66
2021/12/30 07:46:49;;;;;;;55.83;31.20;;;;;;;;;;5030182;28;20652;-66
2021/12/30 07:49:14;;;;;;;70.00;39.65;;;;;;;;;;5031985;28;20121;-65
2021/12/30 07:51:40;;;;;;;76.03;48.78;;;;;;;;;;5030936;28;20504;-65
2021/12/30 07:54:05;;;;;;;69.78;40.10;;;;;;;;;;5030511;28;20073;-66
2021/12/30 07:56:30;;;;;;;67.78;38.88;;;;;;;;;;5031012;28;20032;-66
2021/12/30 07:58:56;;;;;;;57.75;34.90;;;;;;;;;;5031014;28;20029;-65
2021/12/30 08:01:22;;;;;;;59.03;32.85;;;;;;;;;;5029797;28;20018;-66
2021/12/30 08:03:48;;;;;;;59.15;32.75;;;;;;;;;;5029921;28;20059;-65
2021/12/30 08:06:13;;;;;;;58.22;35.15;;;;;;;;;;5030701;28;20041;-65
2021/12/30 08:08:39;;;;;;;69.88;40.28;;;;;;;;;;5030723;28;20041;-65
2021/12/30 08:11:05;;;;;;;85.18;46.13;;;;;;;;;;5030818;28;20112;-65
2021/12/30 08:13:30;;;;;;;82.97;46.20;;;;;;;;;;5030547;28;20492;-58
2021/12/30 08:15:56;;;;;;;57.78;33.20;;;;;;;;;;5030442;28;20436;-66
2021/12/30 08:18:21;;;;;;;65.30;38.20;;;;;;;;;;5030940;28;20582;-66
2021/12/30 08:20:46;;;;;;;52.63;32.10;;;;;;;;;;5030748;28;20018;-66
2021/12/30 08:23:12;;;;;;;48.58;26.52;;;;;;;;;;5030909;28;20484;-66
2021/12/30 08:25:38;;;;;;;42.17;26.55;;;;;;;;;;5030510;28;20025;-66
2021/12/30 08:28:03;;;;;;;41.45;25.95;;;;;;;;;;5030469;28;20457;-66
2021/12/30 08:30:29;;;;;;;54.65;30.20;;;;;;;;;;5031867;28;20029;-63
2021/12/30 08:32:54;;;;;;;47.22;26.90;;;;;;;;;;5031980;28;20033;-64
2021/12/30 08:35:23;;;;;;;51.92;29.42;;;;;;;;;;5032399;28;20091;-66
2021/12/30 08:37:49;;;;;;;47.05;27.45;;;;;;;;;;5031778;28;20468;-65
2021/12/30 08:40:16;;;;;;;41.70;23.23;;;;;;;;;;5031669;28;20087;-65
2021/12/30 08:42:41;;;;;;;37.55;21.42;;;;;;;;;;5031820;28;20825;-66
2021/12/30 08:45:08;;;;;;;41.45;25.10;;;;;;;;;;5031404;28;20136;-66
2021/12/30 08:47:34;;;;;;;37.40;22.65;;;;;;;;;;5031721;28;20215;-66
2021/12/30 08:49:59;;;;;;;35.30;20.50;;;;;;;;;;5031767;28;20118;-66
2021/12/30 08:52:26;;;;;;;36.88;19.92;;;;;;;;;;5031575;28;20042;-66
2021/12/30 08:54:52;;;;;;;35.85;21.17;;;;;;;;;;5031297;28;20028;-66
2021/12/30 08:57:18;;;;;;;35.28;17.00;;;;;;;;;;5029858;28;20033;-66
2021/12/30 08:59:43;;;;;;;38.15;15.65;;;;;;;;;;5029623;28;20018;-67
2021/12/30 09:02:10;;;;;;;30.58;13.35;;;;;;;;;;5027815;28;20519;-67
2021/12/30 09:04:36;;;;;;;27.92;16.80;;;;;;;;;;5029956;28;20038;-66
2021/12/30 09:07:02;;;;;;;31.77;17.25;;;;;;;;;;5029897;28;20048;-67
2021/12/30 09:09:28;;;;;;;25.67;16.15;;;;;;;;;;5029802;28;20041;-65
2021/12/30 09:11:53;;;;;;;29.38;17.70;;;;;;;;;;5029693;28;20032;-66
2021/12/30 09:14:19;;;;;;;27.50;16.25;;;;;;;;;;5029291;28;20113;-66
2021/12/30 09:16:44;;;;;;;28.58;17.75;;;;;;;;;;5029501;28;20021;-66
2021/12/30 09:19:10;;;;;;;29.05;16.83;;;;;;;;;;5029666;28;20040;-66
2021/12/30 09:21:37;;;;;;;27.00;16.23;;;;;;;;;;5029366;28;20025;-66
2021/12/30 09:24:02;;;;;;;26.25;16.95;;;;;;;;;;5029285;28;20045;-66
2021/12/30 09:26:28;;;;;;;23.77;14.70;;;;;;;;;;5029565;28;20025;-66
2021/12/30 09:28:53;;;;;;;25.65;17.00;;;;;;;;;;5029479;28;20037;-66
2021/12/30 09:31:18;;;;;;;26.20;16.27;;;;;;;;;;5029486;28;20026;-66
2021/12/30 09:33:44;;;;;;;25.70;16.30;;;;;;;;;;5027706;28;20030;-67
2021/12/30 09:36:09;;;;;;;21.45;14.70;;;;;;;;;;5029372;28;20021;-67
2021/12/30 09:38:35;;;;;;;21.90;14.73;;;;;;;;;;5029282;28;20068;-66
2021/12/30 09:41:00;;;;;;;21.75;14.63;;;;;;;;;;5029218;28;20068;-67
2021/12/30 09:43:26;;;;;;;22.90;13.82;;;;;;;;;;5010990;28;20026;-66
2021/12/30 09:45:51;;;;;;;22.85;14.30;;;;;;;;;;5028912;28;20017;-66
2021/12/30 09:48:17;;;;;;;20.70;13.30;;;;;;;;;;5028941;28;20051;-66
2021/12/30 09:50:45;;;;;;;20.77;13.23;;;;;;;;;;5028801;28;20112;-66
2021/12/30 09:53:12;;;;;;;20.73;13.40;;;;;;;;;;5028802;28;20120;-66
2021/12/30 09:55:38;;;;;;;18.35;12.52;;;;;;;;;;5028509;28;20129;-67
2021/12/30 09:58:04;;;;;;;20.73;12.82;;;;;;;;;;5028958;28;20116;-65
2021/12/30 10:00:30;;;;;;;21.02;13.10;;;;;;;;;;5028791;28;20537;-64
2021/12/30 10:02:57;;;;;;;21.60;14.20;;;;;;;;;;5028464;28;20049;-65
2021/12/30 10:05:30;;;;;;;20.00;12.75;;;;;;;;;;5028839;28;20029;-64
2021/12/30 10:08:08;;;;;;;21.67;13.88;;;;;;;;;;5028862;28;20034;-63
2021/12/30 10:10:36;;;;;;;19.77;12.30;;;;;;;;;;5027383;28;20048;-63
2021/12/30 10:13:13;;;;;;;19.73;14.10;;;;;;;;;;5028699;28;20112;-63
2021/12/30 10:15:43;;;;;;;16.70;10.68;;;;;;;;;;5024747;28;20037;-63
2021/12/30 10:18:09;;;;;;;19.00;13.07;;;;;;;;;;5028774;28;20033;-63
2021/12/30 10:20:37;;;;;;;17.55;11.95;;;;;;;;;;5028590;28;20083;-63
2021/12/30 10:23:09;;;;;;;16.55;11.75;;;;;;;;;;5028227;28;20037;-63
2021/12/30 10:25:37;;;;;;;14.52;10.93;;;;;;;;;;5028211;28;20603;-63
2021/12/30 10:28:17;;;;;;;17.65;12.48;;;;;;;;;;5028653;28;20021;-63
2021/12/30 10:30:43;;;;;;;16.52;11.32;;;;;;;;;;5028404;28;20454;-63
2021/12/30 10:33:12;;;;;;;16.77;10.65;;;;;;;;;;5028685;28;20079;-63
2021/12/30 10:35:38;;;;;;;16.88;11.18;;;;;;;;;;5028161;28;20039;-63
2021/12/30 10:38:08;;;;;;;12.55;8.82;;;;;;;;;;5028348;28;20025;-63
2021/12/30 10:40:35;;;;;;;13.65;9.02;;;;;;;;;;5028470;28;20069;-63
2021/12/30 10:43:13;;;;;;;16.20;10.10;;;;;;;;;;5028461;28;20014;-63
2021/12/30 10:45:39;;;;;;;13.38;9.02;;;;;;;;;;5027625;28;20062;-63
2021/12/30 10:48:07;;;;;;;13.50;9.18;;;;;;;;;;5028234;28;20492;-63
2021/12/30 10:50:32;;;;;;;15.27;9.32;;;;;;;;;;5028416;28;20102;-63
2021/12/30 10:52:58;;;;;;;14.32;9.02;;;;;;;;;;5028303;28;20037;-63
2021/12/30 10:55:24;;;;;;;17.27;10.45;;;;;;;;;;5027982;28;20120;-62
2021/12/30 10:57:50;;;;;;;16.40;10.07;;;;;;;;;;5028524;28;20443;-62
2021/12/30 11:00:25;;;;;;;17.35;10.77;;;;;;;;;;5028262;28;20459;-62
2021/12/30 11:02:51;;;;;;;17.30;10.43;;;;;;;;;;5027618;28;20053;-62
2021/12/30 11:05:18;;;;;;;16.23;10.63;;;;;;;;;;5028176;28;20072;-62
2021/12/30 11:07:43;;;;;;;16.63;11.00;;;;;;;;;;5028205;28;20033;-62
2021/12/30 11:10:11;;;;;;;17.40;9.82;;;;;;;;;;5028125;28;20037;-62
2021/12/30 11:12:38;;;;;;;13.85;9.13;;;;;;;;;;5028118;28;20022;-62
2021/12/30 11:15:16;;;;;;;14.23;9.73;;;;;;;;;;5027712;28;20554;-62
2021/12/30 11:17:42;;;;;;;17.08;10.43;;;;;;;;;;5028000;28;20045;-62
2021/12/30 11:20:09;;;;;;;14.43;9.60;;;;;;;;;;5027891;28;20037;-62
2021/12/30 11:22:35;;;;;;;13.82;9.75;;;;;;;;;;5028151;28;20021;-62
2021/12/30 11:25:02;;;;;;;17.58;10.30;;;;;;;;;;5026362;28;20053;-62
2021/12/30 11:27:29;;;;;;;18.40;11.43;;;;;;;;;;5027961;28;20034;-62
2021/12/30 11:29:59;;;;;;;16.58;10.38;;;;;;;;;;5028128;28;20029;-62
2021/12/30 11:32:32;;;;;;;13.88;9.60;;;;;;;;;;5028198;28;20041;-62
2021/12/30 11:34:58;;;;;;;15.40;10.02;;;;;;;;;;5027968;28;20025;-62
2021/12/30 11:37:24;;;;;;;16.60;10.45;;;;;;;;;;5031460;28;20048;-62
2021/12/30 11:39:52;;;;;;;12.60;8.95;;;;;;;;;;5031345;28;20479;-62
2021/12/30 11:42:26;;;;;;;14.13;9.45;;;;;;;;;;5031046;28;20400;-62
2021/12/30 11:44:53;;;;;;;16.70;9.50;;;;;;;;;;5031030;28;20040;-62
2021/12/30 11:47:34;;;;;;;14.82;9.50;;;;;;;;;;5031208;28;20457;-62
2021/12/30 11:50:01;;;;;;;;;;;;;;;;;;5031661;28;20407;-62
2021/12/30 11:52:44;;;;;;;13.88;7.75;;;;;;;;;;5031333;28;19936;-62
2021/12/30 11:55:29;;;;;;;13.48;9.00;;;;;;;;;;5030939;28;20041;-62
2021/12/30 11:57:54;;;;;;;12.35;8.25;;;;;;;;;;5031260;28;20033;-62
2021/12/30 12:00:32;;;;;;;13.57;8.95;;;;;;;;;;5029580;28;20519;-62
2021/12/30 12:03:02;;;;;;;14.70;9.38;;;;;;;;;;5034307;28;20073;-62
2021/12/30 12:05:43;;;;;;;10.98;8.10;;;;;;;;;;5030653;28;20179;-62
2021/12/30 12:08:12;;;;;;;11.23;7.85;;;;;;;;;;5030859;28;20040;-62
2021/12/30 12:10:38;;;;;;;13.38;10.40;;;;;;;;;;5029581;28;20396;-62
2021/12/30 12:13:22;;;;;;;12.65;8.85;;;;;;;;;;5029360;28;20077;-62
2021/12/30 12:15:49;;;;;;;14.65;9.52;;;;;;;;;;5030625;28;20049;-62
2021/12/30 12:18:15;;;;;;;12.07;8.75;;;;;;;;;;5030717;28;20491;-62
2021/12/30 12:20:50;;;;;;;11.07;8.35;;;;;;;;;;5030852;28;20061;-62
2021/12/30 12:23:31;;;;;;;12.80;8.82;;;;;;;;;;5030663;28;20021;-62
2021/12/30 12:26:08;;;;;;;12.15;9.20;;;;;;;;;;5030556;28;20034;-63
2021/12/30 12:28:34;;;;;;;10.95;7.70;;;;;;;;;;5030642;28;20036;-63
2021/12/30 12:31:00;;;;;;;10.60;7.55;;;;;;;;;;5030445;28;20251;-62
2021/12/30 12:33:27;;;;;;;13.32;8.65;;;;;;;;;;5030431;28;20060;-63
2021/12/30 12:35:53;;;;;;;12.02;8.32;;;;;;;;;;5029912;28;20506;-62
2021/12/30 12:38:57;;;;;;;12.57;9.40;;;;;;;;;;5030248;28;20037;-63
2021/12/30 12:41:27;;;;;;;10.48;8.43;;;;;;;;;;5007806;28;20044;-62
2021/12/30 12:43:55;;;;;;;12.57;9.80;;;;;;;;;;5007682;28;20045;-62
2021/12/30 12:46:36;;;;;;;12.48;8.82;;;;;;;;;;5018085;28;20049;-62
2021/12/30 12:49:06;;;;;;;12.10;8.93;;;;;;;;;;5028757;28;20061;-62
2021/12/30 12:51:31;;;;;;;13.07;8.95;;;;;;;;;;5028795;28;20143;-62
2021/12/30 12:54:02;;;;;;;12.68;9.40;;;;;;;;;;5030033;28;20116;-62
2021/12/30 12:56:29;;;;;;;14.10;9.95;;;;;;;;;;5029791;28;20033;-62
2021/12/30 12:58:55;;;;;;;12.38;10.05;;;;;;;;;;5029857;28;20064;-62
2021/12/30 13:01:22;;;;;;;16.30;11.27;;;;;;;;;;5029663;28;20412;-63
2021/12/30 13:03:49;;;;;;;15.13;10.55;;;;;;;;;;5029587;28;20045;-63
2021/12/30 13:06:21;;;;;;;16.58;10.88;;;;;;;;;;5029847;28;20037;-63
2021/12/30 13:08:48;;;;;;;14.63;10.85;;;;;;;;;;5030000;28;20033;-62
2021/12/30 13:11:43;;;;;;;12.82;10.02;;;;;;;;;;5033460;28;20033;-62
2021/12/30 13:14:20;;;;;;;14.38;9.82;;;;;;;;;;5025294;28;20049;-62
2021/12/30 13:16:50;;;;;;;13.55;10.00;;;;;;;;;;5034108;28;20124;-62
2021/12/30 13:19:18;;;;;;;13.05;9.95;;;;;;;;;;5034309;28;20045;-62
2021/12/30 13:21:46;;;;;;;11.95;9.80;;;;;;;;;;5034321;28;20049;-62
2021/12/30 13:24:30;;;;;;;13.48;10.13;;;;;;;;;;5034103;28;20026;-62
2021/12/30 13:26:56;;;;;;;12.43;9.43;;;;;;;;;;5032102;28;20464;-62
2021/12/30 13:29:28;;;;;;;14.55;9.90;;;;;;;;;;5033356;28;20024;-62
2021/12/30 13:31:58;;;;;;;14.75;9.85;;;;;;;;;;5032029;28;20391;-62
2021/12/30 13:34:23;;;;;;;14.65;11.60;;;;;;;;;;5031876;28;20032;-62
2021/12/30 13:36:49;;;;;;;12.55;9.25;;;;;;;;;;5033440;28;20128;-62
2021/12/30 13:39:15;;;;;;;15.38;11.48;;;;;;;;;;5033497;28;20074;-62
2021/12/30 13:41:50;;;;;;;14.57;9.88;;;;;;;;;;5033042;28;20061;-62
2021/12/30 13:44:16;;;;;;;16.92;11.27;;;;;;;;;;5033010;28;20480;-62
2021/12/30 13:46:41;;;;;;;11.57;9.07;;;;;;;;;;5032930;28;20025;-62
2021/12/30 13:49:07;;;;;;;12.57;9.13;;;;;;;;;;5032880;28;20018;-62
2021/12/30 13:51:32;;;;;;;12.25;9.45;;;;;;;;;;5032915;28;20025;-62
2021/12/30 13:53:58;;;;;;;13.60;9.55;;;;;;;;;;5032922;28;20033;-62
2021/12/30 13:56:24;;;;;;;13.00;9.55;;;;;;;;;;5033106;28;20048;-62
2021/12/30 13:58:51;;;;;;;17.25;11.82;;;;;;;;;;5032716;28;20033;-62
2021/12/30 14:01:18;;;;;;;12.52;8.38;;;;;;;;;;5033349;28;20031;-62
2021/12/30 14:03:44;;;;;;;12.15;9.27;;;;;;;;;;5033246;28;20073;-62
2021/12/30 14:06:12;;;;;;;14.73;10.35;;;;;;;;;;5033492;28;20033;-62
2021/12/30 14:08:39;;;;;;;20.92;13.60;;;;;;;;;;5033304;28;20103;-62
2021/12/30 14:11:06;;;;;;;19.08;12.93;;;;;;;;;;5033378;28;20041;-62
2021/12/30 14:13:33;;;;;;;20.73;13.95;;;;;;;;;;5033339;28;20052;-62
2021/12/30 14:15:59;;;;;;;26.23;16.38;;;;;;;;;;5033246;28;20480;-62
2021/12/30 14:18:32;;;;;;;32.90;19.80;;;;;;;;;;5033141;28;20049;-62